Time;durP1;ratioP1;P1;durP2;ratioP2;P2;SDS_P1;SDS_P2;PMS_P1;PMS_P2;Temp;Humidity;BMP_temperature;BMP_pressure;BME280_temperature;BME280_humidity;BME280_pressure;Samples;Min_cycle;Max_cycle;Signal;HPM_P1;HPM_P2
2023/03/28 00:02:47;;;;;;;12.60;6.60;;;;;;;3.30;48.54;98690.76;223645;182;148316;-72
2023/03/28 00:07:53;;;;;;;12.20;6.70;;;;;;;3.22;48.82;98685.81;223761;182;138833;-72
2023/03/28 00:12:56;;;;;;;13.30;6.70;;;;;;;3.13;48.89;98687.05;223761;182;136435;-72
2023/03/28 00:18:00;;;;;;;15.00;6.90;;;;;;;3.12;49.12;98685.50;223706;182;147970;-72
2023/03/28 00:23:04;;;;;;;12.90;6.20;;;;;;;3.08;49.18;98687.75;223703;183;139320;-73
2023/03/28 00:28:08;;;;;;;13.70;6.70;;;;;;;3.03;49.39;98679.16;223747;182;136733;-72
2023/03/28 00:33:11;;;;;;;13.00;6.80;;;;;;;2.97;49.54;98673.45;223743;182;147403;-70
2023/03/28 00:38:14;;;;;;;15.40;6.90;;;;;;;2.91;50.10;98675.23;223692;182;138094;-72
2023/03/28 00:43:47;;;;;;;19.10;7.10;;;;;;;2.90;50.10;98674.40;223693;181;137276;-71
2023/03/28 00:48:55;;;;;;;13.30;6.80;;;;;;;2.89;50.01;98679.35;223802;182;147503;-71
2023/03/28 00:54:02;;;;;;;13.10;6.70;;;;;;;2.91;49.93;98687.69;223753;182;138407;-71
2023/03/28 00:59:18;;;;;;;15.90;7.40;;;;;;;2.95;49.85;98693.67;223599;182;137221;-72
2023/03/28 01:04:26;;;;;;;12.90;7.00;;;;;;;2.91;49.56;98701.17;223701;182;148189;-72
2023/03/28 01:09:30;;;;;;;13.50;6.90;;;;;;;2.84;49.58;98697.05;223746;182;138952;-70
2023/03/28 01:14:38;;;;;;;13.70;7.20;;;;;;;2.85;49.45;98693.50;223739;182;139461;-73
2023/03/28 01:20:25;;;;;;;14.20;6.80;;;;;;;2.85;49.54;98696.65;223777;182;147071;-71
2023/03/28 01:26:14;;;;;;;15.30;6.50;;;;;;;2.84;49.30;98700.02;223784;182;138277;-71
2023/03/28 01:31:29;;;;;;;14.70;6.80;;;;;;;2.80;49.33;98694.21;223790;182;257792;-71
2023/03/28 01:37:36;;;;;;;16.10;8.00;;;;;;;2.74;49.44;98691.65;223720;182;147575;-70
2023/03/28 01:42:52;;;;;;;15.80;7.70;;;;;;;2.66;49.80;98688.26;223559;182;139052;-71
2023/03/28 01:48:28;;;;;;;15.20;8.00;;;;;;;2.64;49.88;98692.18;223746;182;137152;-70
2023/03/28 01:53:38;;;;;;;;;;;;;;;2.63;49.96;98690.82;223801;182;147398;-70
2023/03/28 01:58:46;;;;;;;17.60;8.40;;;;;;;2.51;49.96;98691.39;223791;183;139202;-70
2023/03/28 02:04:06;;;;;;;16.30;8.00;;;;;;;2.43;50.20;98699.36;223756;182;137094;-71
2023/03/28 02:09:49;;;;;;;17.30;7.90;;;;;;;2.30;50.36;98702.46;223739;181;147263;-72
2023/03/28 02:15:12;;;;;;;20.30;7.70;;;;;;;2.27;50.36;98698.36;223685;182;139504;-71
2023/03/28 02:20:56;;;;;;;17.10;8.00;;;;;;;2.28;50.27;98697.82;223431;183;136521;-71
2023/03/28 02:26:11;;;;;;;17.50;8.20;;;;;;;2.23;50.25;98696.20;223635;181;147932;-71
2023/03/28 02:31:37;;;;;;;19.90;8.80;;;;;;;2.20;50.40;98691.40;223696;182;138753;-70
2023/03/28 02:37:18;;;;;;;18.40;9.00;;;;;;;2.17;50.39;98689.95;223663;182;136523;-71
2023/03/28 02:42:27;;;;;;;20.30;9.10;;;;;;;2.11;50.58;98681.56;223737;183;147941;-71
2023/03/28 02:48:02;;;;;;;15.90;8.80;;;;;;;2.07;50.62;98676.62;223612;182;139612;-71
2023/03/28 02:53:26;;;;;;;21.20;10.10;;;;;;;2.05;50.57;98680.02;223816;182;136807;-71
2023/03/28 02:59:04;;;;;;;20.60;10.40;;;;;;;2.04;50.53;98674.79;223776;182;146810;-70
2023/03/28 03:04:12;;;;;;;23.30;11.30;;;;;;;2.10;50.41;98673.73;223660;182;139682;-70
2023/03/28 03:09:16;;;;;;;23.80;12.80;;;;;;;2.07;50.20;98680.46;222777;182;136764;-71
2023/03/28 03:14:20;;;;;;;27.70;13.90;;;;;;;2.07;50.16;98681.54;223726;182;147686;-71
2023/03/28 03:19:25;;;;;;;24.00;12.50;;;;;;;2.11;50.08;98683.65;223808;182;138279;-71
2023/03/28 03:24:28;;;;;;;24.40;12.90;;;;;;;2.08;49.97;98680.08;223785;182;137006;-70
2023/03/28 03:29:35;;;;;;;28.50;13.30;;;;;;;2.09;50.13;98683.38;223684;182;148606;-70
2023/03/28 03:34:42;;;;;;;26.40;13.60;;;;;;;2.05;50.25;98684.55;223679;182;140287;-70
2023/03/28 03:39:46;;;;;;;25.70;14.00;;;;;;;2.09;50.41;98674.25;223518;182;136646;-70
2023/03/28 03:44:53;;;;;;;24.20;13.30;;;;;;;2.10;51.10;98677.02;223515;181;147258;-73
2023/03/28 03:49:58;;;;;;;27.00;16.70;;;;;;;2.12;51.75;98668.06;223663;183;138404;-73
2023/03/28 03:55:03;;;;;;;26.30;14.50;;;;;;;2.20;52.63;98669.02;223745;182;136944;-73
2023/03/28 04:00:10;;;;;;;25.90;14.40;;;;;;;2.20;52.98;98665.36;223687;182;146825;-74
2023/03/28 04:05:23;;;;;;;23.60;13.20;;;;;;;2.26;53.41;98660.41;223702;182;138484;-70
2023/03/28 04:10:37;;;;;;;31.10;14.50;;;;;;;2.27;53.83;98662.83;223655;183;141284;-71
2023/03/28 04:15:41;;;;;;;31.20;15.20;;;;;;;2.25;54.16;98672.68;223635;182;147881;-70
2023/03/28 04:21:00;;;;;;;28.20;14.40;;;;;;;2.26;54.72;98669.48;223675;182;140202;-75
2023/03/28 04:26:24;;;;;;;22.60;12.40;;;;;;;2.35;55.00;98677.23;223785;182;136575;-71
2023/03/28 04:31:40;;;;;;;23.90;14.30;;;;;;;2.78;57.21;98678.89;223799;182;147226;-70
2023/03/28 04:37:26;;;;;;;23.60;14.00;;;;;;;2.74;55.42;98676.39;223274;184;141336;-71
2023/03/28 04:42:31;;;;;;;21.90;14.50;;;;;;;2.72;55.60;98677.52;223680;182;136809;-71
2023/03/28 04:47:45;;;;;;;20.50;13.50;;;;;;;2.73;55.84;98669.10;223813;182;147944;-71
2023/03/28 04:52:53;;;;;;;22.30;13.30;;;;;;;2.78;56.05;98674.52;223813;182;139782;-71
2023/03/28 04:57:57;;;;;;;19.60;12.70;;;;;;;2.86;56.24;98671.77;223796;183;136960;-69
2023/03/28 05:03:05;;;;;;;23.90;12.80;;;;;;;2.92;56.21;98674.16;223757;182;149536;-70
2023/03/28 05:08:16;;;;;;;19.60;12.40;;;;;;;2.90;56.46;98680.54;223763;182;138521;-70
2023/03/28 05:13:20;;;;;;;18.70;11.30;;;;;;;2.97;56.72;98680.64;223379;182;137635;-69
2023/03/28 05:18:35;;;;;;;18.20;11.90;;;;;;;2.92;57.79;98682.05;223708;182;148128;-71
2023/03/28 05:23:39;;;;;;;16.60;10.90;;;;;;;2.96;57.83;98685.56;223760;182;139014;-71
2023/03/28 05:28:51;;;;;;;17.40;11.00;;;;;;;2.98;58.09;98685.31;223682;182;136957;-72
2023/03/28 05:33:55;;;;;;;18.10;10.10;;;;;;;3.04;58.01;98678.95;223735;182;147118;-70
2023/03/28 05:39:11;;;;;;;17.00;9.90;;;;;;;3.12;58.21;98670.80;223682;182;138146;-72
2023/03/28 05:44:16;;;;;;;15.90;9.70;;;;;;;3.21;58.12;98675.52;223696;182;136872;-73
2023/03/28 05:49:40;;;;;;;15.90;9.50;;;;;;;3.32;57.98;98671.94;223736;182;147215;-72
2023/03/28 05:54:44;;;;;;;117.80;69.10;;;;;;;3.35;58.15;98675.85;223305;182;138350;-73
2023/03/28 05:59:56;;;;;;;19.00;10.50;;;;;;;3.33;58.52;98689.61;223444;182;136462;-72
2023/03/28 06:04:59;;;;;;;18.80;10.30;;;;;;;3.30;59.34;98698.69;223326;182;146867;-73
2023/03/28 06:10:06;;;;;;;14.10;9.20;;;;;;;3.14;60.31;98701.20;223719;182;139513;-74
2023/03/28 06:15:10;;;;;;;;;;;;;;;3.15;60.63;98699.75;223658;182;136898;-73
2023/03/28 06:20:14;;;;;;;14.70;8.80;;;;;;;3.23;61.06;98706.83;223695;182;147800;-73
2023/03/28 06:25:20;;;;;;;17.10;9.30;;;;;;;3.25;60.91;98704.27;223710;182;138200;-74
2023/03/28 06:30:24;;;;;;;97.10;57.80;;;;;;;3.21;61.20;98707.79;223722;182;137122;-73
2023/03/28 06:35:28;;;;;;;16.70;9.70;;;;;;;3.37;61.14;98715.25;223595;181;147244;-74
2023/03/28 06:40:32;;;;;;;11.70;7.90;;;;;;;3.47;61.16;98720.64;223666;182;230771;-74
2023/03/28 06:45:35;;;;;;;12.80;8.40;;;;;;;3.54;61.24;98723.16;223536;183;137438;-73
2023/03/28 06:50:51;;;;;;;13.30;8.60;;;;;;;3.57;61.14;98721.30;223582;182;147332;-73
2023/03/28 06:55:56;;;;;;;266.10;166.00;;;;;;;3.76;61.51;98724.25;223663;182;138948;-73
2023/03/28 07:01:00;;;;;;;15.00;9.20;;;;;;;3.93;61.25;98727.45;223542;182;139179;-73
2023/03/28 07:06:27;;;;;;;;;;;;;;;4.13;59.87;98731.88;222494;182;147981;-73
2023/03/28 07:11:30;;;;;;;9.90;6.00;;;;;;;4.23;58.96;98730.05;223691;182;138478;-72
2023/03/28 07:16:35;;;;;;;5.60;3.90;;;;;;;4.34;57.74;98730.52;223726;182;139605;-73
2023/03/28 07:21:38;;;;;;;5.70;3.30;;;;;;;4.31;55.81;98730.61;223770;181;147702;-73
2023/03/28 07:26:43;;;;;;;5.00;3.10;;;;;;;4.22;55.92;98739.59;223673;182;139683;-73
2023/03/28 07:31:46;;;;;;;10.60;6.10;;;;;;;4.16;57.56;98755.30;223653;182;136843;-72
2023/03/28 07:36:50;;;;;;;7.90;5.10;;;;;;;4.10;58.86;98751.67;223692;181;148299;-71
2023/03/28 07:42:13;;;;;;;9.40;6.10;;;;;;;4.18;58.94;98749.60;223563;182;138762;-71
2023/03/28 07:47:18;;;;;;;9.00;5.00;;;;;;;4.16;58.86;98755.64;223715;181;136585;-74
2023/03/28 07:52:22;;;;;;;6.70;4.60;;;;;;;4.18;58.85;98767.14;223684;182;147225;-72
2023/03/28 07:57:26;;;;;;;7.20;4.60;;;;;;;4.10;58.97;98770.98;223635;182;138366;-72
2023/03/28 08:02:34;;;;;;;8.10;4.00;;;;;;;4.04;58.83;98771.20;223634;181;137071;-72
2023/03/28 08:07:40;;;;;;;4.90;2.80;;;;;;;4.07;57.86;98773.90;223692;182;147528;-73
2023/03/28 08:12:44;;;;;;;3.90;2.70;;;;;;;4.17;57.01;98767.55;223668;182;138384;-72
2023/03/28 08:17:48;;;;;;;12.80;2.80;;;;;;;4.15;57.76;98803.80;223735;182;137445;-73
2023/03/28 08:22:52;;;;;;;2.50;1.30;;;;;;;3.90;62.24;98828.96;223792;181;147539;-73
2023/03/28 08:28:16;;;;;;;1.80;1.40;;;;;;;3.42;62.03;98824.98;223700;182;138847;-73
2023/03/28 08:33:20;;;;;;;2.40;1.50;;;;;;;3.25;61.58;98831.73;223650;179;136368;-72
2023/03/28 08:38:23;;;;;;;3.10;1.90;;;;;;;3.17;60.97;98832.36;223241;182;147173;-73
2023/03/28 08:43:30;;;;;;;4.00;2.30;;;;;;;3.25;60.83;98836.14;223561;182;139659;-72
2023/03/28 08:48:42;;;;;;;3.50;2.10;;;;;;;3.41;60.37;98846.61;223639;181;136604;-73
2023/03/28 08:54:12;;;;;;;3.70;2.40;;;;;;;3.53;59.45;98850.52;223686;182;147039;-72
2023/03/28 08:59:55;;;;;;;3.90;2.00;;;;;;;3.66;59.15;98866.20;223674;182;138789;-72
2023/03/28 09:04:59;;;;;;;3.40;2.10;;;;;;;3.67;59.73;98865.64;223567;182;136664;-73
2023/03/28 09:10:44;;;;;;;3.30;1.60;;;;;;;3.78;59.42;98864.73;223738;182;147096;-72
2023/03/28 09:16:24;;;;;;;4.00;1.30;;;;;;;3.85;56.38;98865.50;223834;182;138042;-71
2023/03/28 09:21:55;;;;;;;5.80;2.40;;;;;;;3.79;54.35;98890.81;223707;182;136465;-72
2023/03/28 09:27:30;;;;;;;3.10;1.20;;;;;;;3.83;53.29;98908.40;223742;182;148755;-73
2023/03/28 09:32:38;;;;;;;2.50;1.30;;;;;;;3.87;52.57;98921.75;223680;182;138851;-76
2023/03/28 09:37:53;;;;;;;1.90;1.20;;;;;;;3.67;52.46;98932.81;223789;182;136376;-72
2023/03/28 09:42:59;;;;;;;;;;;;;;;3.51;52.37;98943.75;223635;182;146930;-72
2023/03/28 09:48:24;;;;;;;3.50;1.50;;;;;;;3.40;51.86;98949.55;223863;182;139346;-72
2023/03/28 09:53:31;;;;;;;3.10;1.50;;;;;;;3.48;50.87;98947.88;223683;182;136834;-71
2023/03/28 09:58:56;;;;;;;3.20;1.80;;;;;;;3.56;51.05;98949.16;223647;182;147952;-72
2023/03/28 10:04:27;;;;;;;5.30;1.80;;;;;;;3.74;49.98;98952.75;223659;182;141086;-72
2023/03/28 10:09:55;;;;;;;2.40;1.50;;;;;;;3.88;48.00;98950.48;223597;182;136086;-74
2023/03/28 10:14:59;;;;;;;3.00;1.50;;;;;;;4.07;46.83;98952.61;223568;182;146720;-71
2023/03/28 10:20:23;;;;;;;2.60;1.60;;;;;;;4.20;45.58;98962.66;223651;181;138820;-72
2023/03/28 10:25:42;;;;;;;3.50;1.80;;;;;;;4.14;46.09;98964.27;223601;182;137227;-72
2023/03/28 10:30:58;;;;;;;3.00;1.60;;;;;;;4.23;45.32;98964.30;223625;182;147754;-72
2023/03/28 10:36:08;;;;;;;2.10;1.30;;;;;;;4.38;44.51;98967.08;223674;182;138737;-72
2023/03/28 10:41:27;;;;;;;4.40;1.50;;;;;;;4.47;43.28;98979.71;223680;182;136867;-72
2023/03/28 10:46:52;;;;;;;2.50;1.40;;;;;;;4.47;43.99;98985.14;223624;182;147800;-73
2023/03/28 10:52:35;;;;;;;4.00;1.50;;;;;;;4.43;44.07;98997.79;223638;183;139159;-71
2023/03/28 10:57:52;;;;;;;3.30;1.60;;;;;;;4.44;43.99;98999.86;223575;182;136664;-72
2023/03/28 11:03:19;;;;;;;1.90;1.20;;;;;;;4.32;44.61;99014.90;223610;182;148231;-71
2023/03/28 11:08:32;;;;;;;5.30;1.50;;;;;;;4.45;45.60;99023.02;223629;182;139758;-71
2023/03/28 11:14:16;;;;;;;2.50;1.40;;;;;;;4.83;44.57;99009.96;223623;183;137315;-72
2023/03/28 11:19:52;;;;;;;2.90;1.40;;;;;;;5.26;43.89;99003.11;223622;182;147552;-73
2023/03/28 11:25:34;;;;;;;2.50;1.40;;;;;;;5.35;41.34;99007.87;223429;182;139399;-72
2023/03/28 11:31:19;;;;;;;3.40;1.70;;;;;;;5.11;40.92;99017.46;223601;182;136950;-71
2023/03/28 11:36:54;;;;;;;2.20;1.50;;;;;;;5.08;40.51;99008.79;223658;182;147622;-73
2023/03/28 11:42:03;;;;;;;2.00;1.40;;;;;;;5.09;39.63;99001.71;223584;183;138983;-73
2023/03/28 11:47:40;;;;;;;3.00;1.30;;;;;;;5.29;37.65;99006.36;223651;182;137339;-73
2023/03/28 11:53:32;;;;;;;3.40;1.30;;;;;;;5.66;37.03;99008.14;223728;182;147834;-72
2023/03/28 11:58:45;;;;;;;2.40;1.30;;;;;;;6.20;36.61;99011.30;223643;182;139453;-72
2023/03/28 12:03:57;;;;;;;2.50;1.50;;;;;;;6.48;35.91;99000.16;223630;181;136779;-72
2023/03/28 12:09:16;;;;;;;4.00;1.50;;;;;;;6.80;34.76;99001.98;223598;182;148075;-72
2023/03/28 12:14:26;;;;;;;4.40;1.30;;;;;;;7.31;35.00;99005.35;223574;182;138621;-73
2023/03/28 12:19:37;;;;;;;1.50;1.10;;;;;;;7.63;32.73;99002.72;223648;182;136209;-74
2023/03/28 12:24:52;;;;;;;2.40;1.10;;;;;;;8.02;31.91;99000.88;223677;182;147585;-73
2023/03/28 12:30:24;;;;;;;38.30;26.00;;;;;;;8.27;31.89;98998.33;223675;182;140473;-73
2023/03/28 12:35:38;;;;;;;3.90;1.80;;;;;;;8.02;30.54;99005.98;223688;182;137581;-77
2023/03/28 12:40:54;;;;;;;3.30;1.20;;;;;;;7.61;31.06;99017.30;223644;182;148422;-71
2023/03/28 12:46:04;;;;;;;2.60;1.10;;;;;;;7.41;31.73;99008.92;223605;182;139677;-70
2023/03/28 12:51:15;;;;;;;2.80;1.30;;;;;;;7.75;32.28;99010.58;223663;182;136727;-73
2023/03/28 12:56:20;;;;;;;2.70;1.20;;;;;;;7.68;33.77;99016.37;223651;182;148228;-74
2023/03/28 13:01:47;;;;;;;2.60;1.40;;;;;;;7.33;34.82;99028.05;223766;183;138290;-72
2023/03/28 13:07:35;;;;;;;6.90;1.50;;;;;;;6.88;37.03;99048.19;223655;180;137274;-71
2023/03/28 13:13:09;;;;;;;44.90;28.30;;;;;;;6.26;41.84;99073.02;223581;182;148569;-71
2023/03/28 13:18:20;;;;;;;4.40;1.60;;;;;;;5.58;46.43;99091.55;223572;182;138135;-73
2023/03/28 13:23:30;;;;;;;1.90;1.50;;;;;;;5.52;46.97;99076.13;223706;182;136867;-73
2023/03/28 13:28:50;;;;;;;1.60;1.50;;;;;;;5.92;46.85;99073.61;223712;182;147718;-73
2023/03/28 13:34:00;;;;;;;84.80;50.70;;;;;;;6.54;46.24;99069.69;223584;182;138917;-80
2023/03/28 13:39:08;;;;;;;7.30;4.40;;;;;;;7.09;45.24;99062.74;223746;182;137521;-73
2023/03/28 13:44:28;;;;;;;3.30;1.90;;;;;;;7.33;43.22;99065.61;223668;182;148653;-74
2023/03/28 13:49:51;;;;;;;2.90;1.60;;;;;;;7.02;41.97;99068.89;223575;182;139548;-64
2023/03/28 13:55:22;;;;;;;5.60;3.00;;;;;;;6.62;44.45;99100.34;223651;182;137418;-71
2023/03/28 14:00:27;;;;;;;4.10;1.50;;;;;;;6.14;48.76;99134.48;223669;182;147439;-72
2023/03/28 14:05:32;;;;;;;3.70;1.60;;;;;;;5.62;51.32;99162.65;223721;182;137226;-71
2023/03/28 14:10:39;;;;;;;1.30;1.20;;;;;;;5.02;54.58;99174.31;223698;182;136326;-70
2023/03/28 14:15:54;;;;;;;1.30;0.80;;;;;;;4.30;55.43;99176.17;223585;182;148265;-70
2023/03/28 14:20:59;;;;;;;2.20;1.20;;;;;;;3.79;54.11;99157.19;223702;181;139451;-72
2023/03/28 14:26:14;;;;;;;4.60;1.40;;;;;;;3.80;53.37;99145.73;223641;183;152552;-72
2023/03/28 14:31:37;;;;;;;3.10;1.60;;;;;;;3.79;53.24;99156.66;223562;183;147634;-70
2023/03/28 14:37:05;;;;;;;2.90;2.00;;;;;;;3.89;52.00;99165.62;223420;183;139116;-72
2023/03/28 14:42:14;;;;;;;5.60;3.30;;;;;;;3.95;52.10;99166.31;223745;182;137189;-72
2023/03/28 14:47:27;;;;;;;2.70;2.00;;;;;;;4.02;51.06;99159.76;223659;183;146479;-71
2023/03/28 14:52:39;;;;;;;34.20;20.30;;;;;;;4.16;50.90;99164.02;223572;183;138593;-69
2023/03/28 14:57:46;;;;;;;64.90;38.70;;;;;;;4.24;51.38;99162.87;223596;183;136637;-73
2023/03/28 15:02:53;;;;;;;4.90;2.80;;;;;;;4.47;50.85;99168.73;223564;183;147710;-75
2023/03/28 15:08:01;;;;;;;4.00;2.10;;;;;;;4.61;50.33;99164.40;223622;182;138291;-73
2023/03/28 15:13:42;;;;;;;4.50;2.30;;;;;;;4.80;48.94;99157.00;223732;178;137890;-73
2023/03/28 15:18:57;;;;;;;5.30;2.40;;;;;;;4.93;47.71;99161.12;223610;183;147551;-73
2023/03/28 15:24:02;;;;;;;3.80;2.30;;;;;;;4.89;47.70;99173.02;223604;182;139199;-74
2023/03/28 15:29:07;;;;;;;6.20;2.30;;;;;;;4.79;47.28;99184.82;223637;182;150586;-74
2023/03/28 15:34:19;;;;;;;6.30;2.10;;;;;;;4.54;48.23;99195.89;223519;182;147204;-73
2023/03/28 15:39:34;;;;;;;3.80;2.10;;;;;;;4.19;50.63;99208.52;223562;183;138504;-74
2023/03/28 15:44:40;;;;;;;2.90;2.10;;;;;;;3.97;52.24;99224.34;223627;183;137554;-74
2023/03/28 15:49:44;;;;;;;4.40;2.20;;;;;;;3.78;53.85;99219.84;223677;182;147626;-74
2023/03/28 15:54:51;;;;;;;4.00;2.40;;;;;;;3.78;54.03;99225.29;223400;182;138716;-74
2023/03/28 15:59:57;;;;;;;230.40;138.00;;;;;;;3.78;53.90;99232.83;223612;182;136629;-74
2023/03/28 16:05:09;;;;;;;7.00;4.00;;;;;;;3.90;52.83;99235.60;223500;183;147515;-72
2023/03/28 16:10:16;;;;;;;6.30;3.40;;;;;;;3.90;51.75;99242.10;223540;182;138253;-75
2023/03/28 16:15:46;;;;;;;4.90;2.60;;;;;;;3.86;50.69;99245.40;223541;183;136752;-74
2023/03/28 16:20:58;;;;;;;6.20;2.60;;;;;;;3.91;50.57;99255.95;223499;183;147771;-77
2023/03/28 16:26:03;;;;;;;4.50;2.80;;;;;;;3.85;52.75;99273.14;223588;182;138804;-74
2023/03/28 16:31:11;;;;;;;;;;;;;;;3.61;53.69;99285.10;223614;183;137252;-72
2023/03/28 16:36:15;;;;;;;5.00;2.60;;;;;;;3.25;54.99;99287.55;223657;183;147399;-73
2023/03/28 16:41:18;;;;;;;6.30;2.70;;;;;;;3.15;55.84;99289.77;223723;182;138821;-72
2023/03/28 16:46:22;;;;;;;4.90;2.80;;;;;;;3.21;55.54;99285.95;223592;183;136675;-74
2023/03/28 16:51:38;;;;;;;4.60;2.80;;;;;;;3.27;56.00;99290.14;223602;183;147779;-75
2023/03/28 16:56:42;;;;;;;6.00;3.10;;;;;;;3.30;55.28;99303.72;223671;183;139099;-74
2023/03/28 17:01:46;;;;;;;5.30;3.10;;;;;;;3.29;54.73;99317.95;223731;183;136806;-72
2023/03/28 17:06:51;;;;;;;329.40;213.30;;;;;;;3.40;54.74;99329.92;223622;183;147618;-71
2023/03/28 17:11:55;;;;;;;14.90;8.60;;;;;;;3.64;54.92;99334.48;223555;183;259466;-71
2023/03/28 17:16:58;;;;;;;13.20;6.00;;;;;;;3.76;54.53;99362.59;223635;182;137672;-73
2023/03/28 17:22:02;;;;;;;7.00;3.70;;;;;;;3.62;55.96;99389.64;223559;183;147558;-73
2023/03/28 17:27:06;;;;;;;6.20;2.80;;;;;;;3.38;57.18;99389.09;223574;183;140287;-72
2023/03/28 17:32:09;;;;;;;7.30;4.40;;;;;;;3.22;57.86;99396.35;223699;182;137337;-72
2023/03/28 17:37:13;;;;;;;4.80;3.10;;;;;;;3.16;56.58;99405.44;223619;183;147792;-73
2023/03/28 17:42:16;;;;;;;11.60;6.60;;;;;;;3.14;55.34;99412.02;223522;183;139131;-71
2023/03/28 17:47:19;;;;;;;5.10;2.50;;;;;;;3.20;54.45;99419.55;223613;183;136941;-72
2023/03/28 17:52:23;;;;;;;4.20;2.90;;;;;;;3.26;53.42;99429.04;223683;182;147411;-75
2023/03/28 17:57:26;;;;;;;5.20;2.90;;;;;;;3.16;52.85;99436.65;223673;182;139084;-75
2023/03/28 18:02:30;;;;;;;4.20;2.50;;;;;;;3.11;53.40;99444.33;223681;182;137370;-77
2023/03/28 18:07:42;;;;;;;3.30;2.80;;;;;;;3.04;53.99;99457.98;223602;183;148822;-75
2023/03/28 18:12:46;;;;;;;5.40;3.40;;;;;;;3.04;53.76;99466.22;223600;183;138582;-74
2023/03/28 18:17:50;;;;;;;5.40;3.20;;;;;;;3.01;53.41;99474.17;223583;182;137013;-75
2023/03/28 18:22:54;;;;;;;7.70;3.30;;;;;;;2.91;53.88;99481.96;223657;183;147132;-75
2023/03/28 18:27:57;;;;;;;6.20;3.80;;;;;;;2.95;53.19;99485.88;223625;182;139204;-74
2023/03/28 18:33:02;;;;;;;5.10;3.20;;;;;;;2.86;52.65;99495.23;223666;183;149705;-75
2023/03/28 18:38:06;;;;;;;7.80;3.20;;;;;;;2.88;52.23;99508.67;223643;182;148310;-74
2023/03/28 18:43:09;;;;;;;7.20;3.20;;;;;;;2.95;51.67;99511.48;223471;182;138378;-74
2023/03/28 18:48:17;;;;;;;5.80;2.90;;;;;;;3.03;50.69;99517.77;223696;182;137660;-75
2023/03/28 18:53:21;;;;;;;5.60;2.90;;;;;;;2.95;50.33;99537.77;223541;183;147954;-75
2023/03/28 18:58:27;;;;;;;6.70;2.90;;;;;;;2.87;54.12;99546.01;223607;183;138667;-75
2023/03/28 19:03:43;;;;;;;5.20;3.30;;;;;;;2.69;56.05;99544.67;223552;182;137132;-74
2023/03/28 19:08:47;;;;;;;65.50;42.30;;;;;;;2.65;56.61;99542.66;223663;183;147107;-76
2023/03/28 19:13:50;;;;;;;23.30;15.10;;;;;;;2.76;57.13;99543.64;223704;182;138777;-74
2023/03/28 19:19:06;;;;;;;7.30;3.80;;;;;;;2.88;55.19;99540.92;223546;182;138157;-73
2023/03/28 19:24:09;;;;;;;6.30;3.80;;;;;;;2.90;52.63;99548.40;223619;183;146850;-74
2023/03/28 19:29:13;;;;;;;6.10;3.30;;;;;;;2.76;51.10;99550.64;223371;182;138318;-73
2023/03/28 19:34:30;;;;;;;7.00;3.20;;;;;;;2.83;50.34;99551.70;223639;183;137182;-73
2023/03/28 19:39:33;;;;;;;4.80;2.80;;;;;;;2.85;49.41;99551.84;223645;183;146867;-74
2023/03/28 19:44:38;;;;;;;4.80;2.40;;;;;;;2.85;48.67;99556.41;223589;182;139166;-74
2023/03/28 19:49:41;;;;;;;9.90;5.80;;;;;;;2.87;48.18;99557.60;223765;183;137566;-75
2023/03/28 19:54:45;;;;;;;6.50;3.30;;;;;;;2.88;48.21;99560.35;223699;183;147022;-74
2023/03/28 19:59:48;;;;;;;7.40;3.50;;;;;;;2.93;47.90;99563.58;223518;183;138855;-73
2023/03/28 20:04:52;;;;;;;7.40;3.70;;;;;;;2.97;47.92;99563.13;223630;182;136710;-72
2023/03/28 20:09:55;;;;;;;9.90;3.60;;;;;;;3.04;47.87;99563.48;223633;183;147452;-72
2023/03/28 20:14:59;;;;;;;8.70;3.80;;;;;;;3.03;47.53;99565.61;223701;182;138936;-73
2023/03/28 20:20:03;;;;;;;9.80;3.80;;;;;;;2.99;47.95;99563.27;223745;183;136319;-73
2023/03/28 20:25:07;;;;;;;8.50;4.00;;;;;;;2.94;48.05;99561.81;223730;182;146842;-74
2023/03/28 20:30:11;;;;;;;8.80;3.60;;;;;;;2.98;47.99;99565.40;223627;182;138952;-73
2023/03/28 20:35:15;;;;;;;7.60;3.80;;;;;;;3.03;47.88;99567.55;223582;183;137546;-72
2023/03/28 20:40:20;;;;;;;10.90;3.90;;;;;;;3.05;47.98;99562.77;223666;183;147019;-73
2023/03/28 20:45:24;;;;;;;9.10;4.60;;;;;;;3.09;47.86;99556.73;223644;182;139796;-72
2023/03/28 20:50:37;;;;;;;9.70;4.60;;;;;;;3.09;47.84;99558.30;223708;183;136979;-72
2023/03/28 20:55:42;;;;;;;11.70;5.10;;;;;;;3.05;47.75;99566.11;223643;183;148204;-72
2023/03/28 21:00:46;;;;;;;10.10;5.70;;;;;;;2.98;47.93;99569.59;223668;182;138474;-72
2023/03/28 21:05:50;;;;;;;12.40;6.80;;;;;;;2.96;48.44;99570.88;223370;183;136771;-73
2023/03/28 21:10:53;;;;;;;15.70;7.00;;;;;;;2.94;48.90;99574.77;223651;179;148867;-73
2023/03/28 21:15:56;;;;;;;16.10;7.20;;;;;;;2.91;49.09;99576.95;223737;182;140132;-74
2023/03/28 21:21:00;;;;;;;17.10;7.10;;;;;;;2.94;48.87;99582.84;223690;182;137771;-72
2023/03/28 21:26:06;;;;;;;14.20;6.60;;;;;;;2.96;49.03;99585.25;223711;182;147881;-72
2023/03/28 21:31:24;;;;;;;13.00;6.00;;;;;;;2.91;48.55;99591.13;223393;182;139514;-73
2023/03/28 21:36:29;;;;;;;12.40;6.60;;;;;;;2.93;47.97;99593.37;223678;183;136685;-72
2023/03/28 21:41:35;;;;;;;13.70;6.20;;;;;;;2.92;47.44;99597.09;223527;184;147592;-72
2023/03/28 21:46:40;;;;;;;12.00;6.00;;;;;;;2.92;47.07;99594.64;223608;183;138966;-72
2023/03/28 21:51:44;;;;;;;12.20;6.10;;;;;;;2.88;46.72;99592.44;223722;183;136343;-72
2023/03/28 21:56:48;;;;;;;15.10;6.00;;;;;;;2.86;46.53;99595.63;223758;182;147008;-73
2023/03/28 22:01:54;;;;;;;11.70;6.00;;;;;;;2.82;46.36;99597.65;223783;182;138971;-73
2023/03/28 22:06:58;;;;;;;14.10;6.30;;;;;;;2.80;46.21;99599.79;223613;183;138435;-73
2023/03/28 22:12:04;;;;;;;13.30;6.00;;;;;;;2.78;46.05;99598.08;223746;182;149265;-71
2023/03/28 22:17:08;;;;;;;10.60;5.50;;;;;;;2.79;45.88;99604.37;223696;183;138801;-71
2023/03/28 22:22:12;;;;;;;10.40;5.50;;;;;;;2.77;45.45;99605.63;223658;182;136972;-71
2023/03/28 22:27:16;;;;;;;9.10;4.90;;;;;;;2.73;45.42;99608.88;223664;182;147430;-71
2023/03/28 22:32:20;;;;;;;13.10;5.00;;;;;;;2.70;44.87;99609.45;223650;182;138335;-71
2023/03/28 22:38:08;;;;;;;8.90;4.70;;;;;;;2.74;44.82;99609.91;223653;182;138268;-71
2023/03/28 22:43:12;;;;;;;11.80;5.10;;;;;;;2.75;44.76;99607.08;223703;182;148144;-74
2023/03/28 22:48:15;;;;;;;8.10;4.20;;;;;;;2.73;44.54;99609.76;223658;182;138130;-72
2023/03/28 22:53:22;;;;;;;9.50;4.70;;;;;;;2.67;44.18;99610.75;223600;183;136861;-72
2023/03/28 22:58:26;;;;;;;10.80;4.80;;;;;;;2.67;43.85;99613.73;223606;182;148133;-72
2023/03/28 23:03:31;;;;;;;9.20;4.30;;;;;;;2.58;43.91;99617.94;223658;183;138813;-72
2023/03/28 23:08:34;;;;;;;10.70;4.60;;;;;;;2.53;43.97;99621.90;223737;183;141034;-72
2023/03/28 23:13:38;;;;;;;11.50;4.30;;;;;;;2.54;43.73;99622.39;223738;183;147185;-73
2023/03/28 23:18:42;;;;;;;11.00;4.70;;;;;;;2.48;43.59;99625.15;223610;183;138762;-72
2023/03/28 23:23:46;;;;;;;12.50;4.70;;;;;;;2.40;43.37;99625.48;223469;183;137340;-73
2023/03/28 23:28:49;;;;;;;9.30;4.70;;;;;;;2.38;43.24;99630.95;223375;183;146702;-74
2023/03/28 23:33:52;;;;;;;9.00;4.40;;;;;;;2.39;43.21;99624.80;223519;183;139024;-73
2023/03/28 23:38:56;;;;;;;10.50;4.70;;;;;;;2.43;43.01;99629.27;223720;182;136728;-73
2023/03/28 23:43:59;;;;;;;8.90;4.40;;;;;;;2.44;42.79;99637.65;223717;183;147962;-73
2023/03/28 23:49:03;;;;;;;11.20;4.60;;;;;;;2.36;42.60;99640.96;223729;182;138471;-74
2023/03/28 23:54:06;;;;;;;11.60;4.40;;;;;;;2.34;42.51;99644.16;223612;183;136592;-74
2023/03/28 23:59:10;;;;;;;9.00;4.50;;;;;;;2.33;42.48;99644.16;223594;182;147729;-74
